Talin, Estonija

11:40 PM EEST on april 27, 2015 (GMT +0300)
Ulemiste | | Change Station
CLOSE
Current Station
Airport
Location: Tallinn,
Višina: 131 ft
Nearby Weather Stations

Viš 131 ft 59.41 °N, 24.83 °E | Updated 20 minutes ago

Mostly Cloudy
Pretezno oblacno
54 °F
Feels Like 54 °F
N
5
Veter Spremenljivo Veter od Jug

Danes
High -- | Low -- °F
--% Chance of Precip.
Yesterday
High -- | Low -- °F
Precip. -- v
5:33 AM 9:04 PM
Naraščajoča luna, 67% visible
Zračni tlak 29.59 v
Vidljivost 6.2 milje
Oblaki Few 2800 ft
Pretezno oblacno 4400 ft
Rosišče 52 °F
Vlažnost 94%
Padavine 0.00 v
Snow Depth Not available.
UV 0 out of 12
Pollen Not available.
Air Quality Not available.
Flu Activity Not available.
METAR EETN 272020Z 17004KT 140V210 9999 FEW028 BKN044 12/11 Q1002 TEMPO 4000 RA

More Conditions Fewer Conditions

Zračni tlak 29.59 v
Vidljivost 6.2 milje
Oblaki Few 2800 ft
Pretezno oblacno 4400 ft
Rosišče 52 °F
Vlažnost 94%
Padavine 0.00 v
Snow Depth Not available.
UV 0 out of 12
Pollen Not available.
Air Quality Not available.
Flu Activity Not available.
METAR EETN 272020Z 17004KT 140V210 9999 FEW028 BKN044 12/11 Q1002 TEMPO 4000 RA

More Conditions Fewer Conditions

10-Day Weather Forecast

Almanac

Astronomija

Apr. 27, 2015 Rise Set
Actual Time
Civil Twilight
Nautical Twilight
Astronomical Twilight
Moon
Length Of Visible Light
Dolžina dneva
Tomorrow will be .
, % of the Moon is Illuminated

Današnji ekstremi

Country Highs Country Lows

Community

WunderPhotos

Upload Photos

1,817,421 photos uploaded!

WunderBlogs® & News

Nearby

Air Quality

  Air Quality AQ Index Pollutant
Not available.

Snow Depth

Station Depth Višina

Earthquake Activity

City Distance Mag. Time & Date
Minimum magnitude displayed is 2.5.

Coastal Water Temperatures

Mesto Temperatura

Stations

Nearby Weather Stations

Station Location Temp Občutek zaradi vetra Rosišče Vlažnost Veter Precip. Viš Obnovljeno Type